createdAt,value
2023-01-21T00:03:40.524Z,96.23
2023-01-21T00:08:43.986Z,96.35
2023-01-21T00:13:48.081Z,96.26
2023-01-21T00:18:50.851Z,96.22
2023-01-21T00:23:53.607Z,96.09
2023-01-21T00:28:56.344Z,95.88
2023-01-21T00:33:59.097Z,95.95
2023-01-21T00:39:01.835Z,96.00
2023-01-21T00:44:05.476Z,96.01
2023-01-21T00:49:08.246Z,96.07
2023-01-21T00:54:10.998Z,96.34
2023-01-21T00:59:13.778Z,96.32
2023-01-21T01:04:16.850Z,96.03
2023-01-21T01:09:19.619Z,96.04
2023-01-21T01:14:22.684Z,95.73
2023-01-21T01:19:25.483Z,95.78
2023-01-21T01:24:28.388Z,95.61
2023-01-21T01:29:31.239Z,95.57
2023-01-21T01:34:33.951Z,95.72
2023-01-21T01:39:36.704Z,95.69
2023-01-21T01:45:01.379Z,95.80
2023-01-21T01:50:08.986Z,95.59
2023-01-21T01:55:15.452Z,95.76
2023-01-21T02:00:19.693Z,95.61
2023-01-21T02:05:22.539Z,95.58
2023-01-21T02:10:25.320Z,95.50
2023-01-21T02:15:52.195Z,95.48
2023-01-21T02:20:57.909Z,95.22
2023-01-21T02:26:22.470Z,94.96
2023-01-21T02:31:53.441Z,94.69
2023-01-21T02:37:18.999Z,94.76
2023-01-21T02:42:47.712Z,94.60
2023-01-21T02:48:05.891Z,94.47
2023-01-21T02:53:21.618Z,94.51
2023-01-21T02:58:31.520Z,94.36
2023-01-21T03:04:03.772Z,94.53
2023-01-21T03:09:21.527Z,94.66
2023-01-21T03:14:52.003Z,94.94
2023-01-21T03:20:08.640Z,95.20
2023-01-21T03:25:13.747Z,95.41
2023-01-21T03:30:19.083Z,95.61
2023-01-21T03:35:29.307Z,95.68
2023-01-21T03:40:42.262Z,95.80
2023-01-21T03:46:09.822Z,95.74
2023-01-21T03:51:17.787Z,95.86
2023-01-21T03:56:20.616Z,95.84
2023-01-21T04:01:23.535Z,96.00
2023-01-21T04:06:27.562Z,95.92
2023-01-21T04:11:30.318Z,96.10
2023-01-21T04:16:33.163Z,96.10
2023-01-21T04:21:36.309Z,96.13
2023-01-21T04:26:39.078Z,96.13
2023-01-21T04:31:41.934Z,96.06
2023-01-21T04:36:45.357Z,95.84
2023-01-21T04:41:48.297Z,95.82
2023-01-21T04:46:51.078Z,95.63
2023-01-21T04:51:53.921Z,95.26
2023-01-21T04:56:56.670Z,95.30
2023-01-21T05:01:59.526Z,95.15
2023-01-21T05:07:02.400Z,95.07
2023-01-21T05:12:05.394Z,95.04
2023-01-21T05:17:08.546Z,94.82
2023-01-21T05:22:11.290Z,94.72
2023-01-21T05:27:14.612Z,94.53
2023-01-21T05:32:17.319Z,94.53
2023-01-21T05:37:20.133Z,94.58
2023-01-21T05:42:23.139Z,94.37
2023-01-21T05:47:25.869Z,94.44
2023-01-21T05:52:28.665Z,94.65
2023-01-21T05:57:32.437Z,94.42
2023-01-21T06:02:35.740Z,94.37
2023-01-21T06:07:38.735Z,94.24
2023-01-21T06:12:41.498Z,94.17
2023-01-21T06:17:46.412Z,94.17
2023-01-21T06:22:50.075Z,94.50
2023-01-21T06:27:57.262Z,94.91
2023-01-21T06:33:00.004Z,95.72
2023-01-21T06:38:03.582Z,96.70
2023-01-21T06:43:06.360Z,97.47
2023-01-21T06:48:09.152Z,98.35
2023-01-21T06:53:12.170Z,99.05
2023-01-21T06:58:16.397Z,99.82
2023-01-21T07:03:19.559Z,100.00
2023-01-21T07:08:22.943Z,100.00
2023-01-21T07:13:25.681Z,100.00
2023-01-21T07:18:28.544Z,100.00
2023-01-21T07:23:31.306Z,100.00
2023-01-21T07:28:34.303Z,100.00
2023-01-21T07:33:37.086Z,100.00
2023-01-21T07:38:42.131Z,100.00
2023-01-21T07:43:47.905Z,100.00
2023-01-21T07:48:51.924Z,100.00
2023-01-21T07:53:58.426Z,100.00
2023-01-21T07:59:01.196Z,100.00
2023-01-21T08:04:04.189Z,100.00
2023-01-21T08:09:07.790Z,100.00
2023-01-21T08:14:10.535Z,100.00
2023-01-21T08:19:14.080Z,100.00
2023-01-21T08:24:17.180Z,100.00
2023-01-21T08:29:19.920Z,100.00
2023-01-21T08:34:23.248Z,100.00
2023-01-21T08:39:26.071Z,100.00
2023-01-21T08:44:28.894Z,100.00
2023-01-21T08:49:31.643Z,100.00
2023-01-21T08:54:34.442Z,100.00
2023-01-21T08:59:37.275Z,100.00
2023-01-21T09:04:40.002Z,100.00
2023-01-21T09:09:42.841Z,100.00
2023-01-21T09:14:45.624Z,100.00
2023-01-21T09:19:49.055Z,100.00
2023-01-21T09:24:52.066Z,100.00
2023-01-21T09:29:54.970Z,100.00
2023-01-21T09:34:57.712Z,100.00
2023-01-21T09:40:03.670Z,100.00
2023-01-21T09:45:11.345Z,100.00
2023-01-21T09:50:19.060Z,100.00
2023-01-21T09:55:36.105Z,100.00
2023-01-21T10:00:47.965Z,100.00
2023-01-21T10:05:53.510Z,100.00
2023-01-21T10:11:20.644Z,100.00
2023-01-21T10:17:02.212Z,100.00
2023-01-21T10:22:40.207Z,100.00
2023-01-21T10:27:45.642Z,100.00
2023-01-21T10:32:52.151Z,100.00
2023-01-21T10:38:09.700Z,100.00
2023-01-21T10:43:36.284Z,100.00
2023-01-21T10:48:54.635Z,100.00
2023-01-21T10:54:22.519Z,100.00
2023-01-21T10:59:33.471Z,100.00
2023-01-21T11:04:40.918Z,100.00
2023-01-21T11:09:49.680Z,100.00
2023-01-21T11:15:03.231Z,100.00
2023-01-21T11:20:21.689Z,100.00
2023-01-21T11:25:31.146Z,100.00
2023-01-21T11:30:50.143Z,100.00
2023-01-21T11:35:55.407Z,100.00
2023-01-21T11:41:13.596Z,100.00
2023-01-21T11:46:26.232Z,100.00
2023-01-21T11:51:29.477Z,100.00
2023-01-21T11:56:32.278Z,100.00
2023-01-21T12:01:35.456Z,99.97
2023-01-21T12:06:47.563Z,99.84
2023-01-21T12:12:03.382Z,99.89
2023-01-21T12:17:31.041Z,99.88
2023-01-21T12:22:55.099Z,99.89
2023-01-21T12:28:23.648Z,99.96
2023-01-21T12:33:32.517Z,100.00
2023-01-21T12:38:41.086Z,99.97
2023-01-21T12:44:18.815Z,100.00
2023-01-21T12:49:28.430Z,100.00
2023-01-21T12:54:46.398Z,100.00
2023-01-21T12:59:57.065Z,100.00
2023-01-21T13:05:23.766Z,100.00
2023-01-21T13:10:34.002Z,100.00
2023-01-21T13:15:40.395Z,100.00
2023-01-21T13:20:58.746Z,100.00
2023-01-21T13:26:18.453Z,100.00
2023-01-21T13:31:27.014Z,100.00
2023-01-21T13:37:01.599Z,100.00
2023-01-21T13:42:42.132Z,100.00
2023-01-21T13:48:14.224Z,100.00
2023-01-21T13:53:42.115Z,100.00
2023-01-21T13:59:01.053Z,100.00
2023-01-21T14:04:15.717Z,100.00
2023-01-21T14:09:33.157Z,100.00
2023-01-21T14:14:58.510Z,100.00
2023-01-21T14:20:29.253Z,100.00
2023-01-21T14:26:01.396Z,100.00
2023-01-21T14:31:21.233Z,100.00
2023-01-21T14:36:43.569Z,100.00
2023-01-21T14:42:04.721Z,100.00
2023-01-21T14:47:30.844Z,100.00
2023-01-21T14:52:46.868Z,100.00
2023-01-21T14:57:52.755Z,100.00
2023-01-21T15:03:18.435Z,100.00
2023-01-21T15:08:29.427Z,100.00
2023-01-21T15:13:47.268Z,100.00
2023-01-21T15:19:14.733Z,100.00
2023-01-21T15:24:26.129Z,100.00
2023-01-21T15:29:37.668Z,100.00
2023-01-21T15:34:42.403Z,100.00
2023-01-21T15:39:45.791Z,100.00
2023-01-21T15:45:12.956Z,100.00
2023-01-21T15:50:21.867Z,100.00
2023-01-21T15:55:52.394Z,100.00
2023-01-21T16:01:21.485Z,100.00
2023-01-21T16:06:44.358Z,100.00
2023-01-21T16:12:24.870Z,100.00
2023-01-21T16:17:44.790Z,100.00
2023-01-21T16:22:54.271Z,100.00
2023-01-21T16:27:57.181Z,100.00
2023-01-21T16:33:16.983Z,100.00
2023-01-21T16:38:26.323Z,100.00
2023-01-21T16:43:29.187Z,100.00
2023-01-21T16:48:34.099Z,100.00
2023-01-21T16:53:36.979Z,100.00
2023-01-21T16:58:47.501Z,100.00
2023-01-21T17:03:53.448Z,100.00
2023-01-21T17:09:09.833Z,100.00
2023-01-21T17:14:22.196Z,100.00
2023-01-21T17:19:31.809Z,100.00
2023-01-21T17:24:39.470Z,100.00
2023-01-21T17:29:45.310Z,100.00
2023-01-21T17:35:09.080Z,100.00
2023-01-21T17:40:27.166Z,100.00
2023-01-21T17:45:35.689Z,100.00
2023-01-21T17:50:46.573Z,100.00
2023-01-21T17:56:09.779Z,100.00
2023-01-21T18:01:13.240Z,100.00
2023-01-21T18:06:20.324Z,100.00
2023-01-21T18:11:24.268Z,100.00
2023-01-21T18:16:27.524Z,100.00
2023-01-21T18:21:30.389Z,100.00
2023-01-21T18:26:33.801Z,100.00
2023-01-21T18:31:36.748Z,100.00
2023-01-21T18:36:41.937Z,100.00
2023-01-21T18:41:46.016Z,100.00
2023-01-21T18:46:48.778Z,100.00
2023-01-21T18:51:51.743Z,100.00
2023-01-21T18:56:54.612Z,100.00
2023-01-21T19:01:57.522Z,100.00
2023-01-21T19:07:00.802Z,100.00
2023-01-21T19:12:03.756Z,100.00
2023-01-21T19:17:26.507Z,100.00
2023-01-21T19:22:32.519Z,100.00
2023-01-21T19:27:39.885Z,100.00
2023-01-21T19:32:42.734Z,100.00
2023-01-21T19:37:50.440Z,100.00
2023-01-21T19:42:56.193Z,100.00
2023-01-21T19:47:58.994Z,100.00
2023-01-21T19:53:01.732Z,100.00
2023-01-21T19:58:11.901Z,100.00
2023-01-21T20:03:16.547Z,100.00
2023-01-21T20:08:23.211Z,100.00
2023-01-21T20:13:27.688Z,100.00
2023-01-21T20:18:33.225Z,100.00
2023-01-21T20:23:36.469Z,100.00
2023-01-21T20:28:47.058Z,100.00
2023-01-21T20:33:49.930Z,100.00
2023-01-21T20:38:54.433Z,100.00
2023-01-21T20:43:57.936Z,100.00
2023-01-21T20:49:02.589Z,100.00
2023-01-21T20:54:06.894Z,100.00
2023-01-21T20:59:09.816Z,100.00
2023-01-21T21:04:12.557Z,100.00
2023-01-21T21:09:15.482Z,100.00
2023-01-21T21:14:18.241Z,100.00
2023-01-21T21:19:21.893Z,100.00
2023-01-21T21:24:29.888Z,100.00
2023-01-21T21:29:32.641Z,100.00
2023-01-21T21:34:36.491Z,100.00
2023-01-21T21:39:39.925Z,100.00
2023-01-21T21:49:45.020Z,100.00
2023-01-21T21:54:47.824Z,100.00
2023-01-21T21:59:50.707Z,100.00
2023-01-21T22:04:55.540Z,100.00
2023-01-21T22:09:59.044Z,100.00
2023-01-21T22:15:02.084Z,100.00
2023-01-21T22:20:05.219Z,100.00
2023-01-21T22:25:10.900Z,100.00
2023-01-21T22:30:14.836Z,100.00
2023-01-21T22:35:17.911Z,100.00
2023-01-21T22:40:20.937Z,100.00
2023-01-21T22:45:23.887Z,100.00
2023-01-21T22:50:29.339Z,100.00
2023-01-21T22:55:32.442Z,100.00
2023-01-21T23:00:40.649Z,100.00
2023-01-21T23:05:43.798Z,100.00
2023-01-21T23:10:47.501Z,100.00
2023-01-21T23:15:50.469Z,100.00
2023-01-21T23:20:54.024Z,100.00
2023-01-21T23:25:56.785Z,100.00
2023-01-21T23:31:07.709Z,100.00
2023-01-21T23:36:13.568Z,100.00
2023-01-21T23:41:17.190Z,100.00
2023-01-21T23:46:20.434Z,100.00
2023-01-21T23:51:23.442Z,100.00
2023-01-21T23:56:26.823Z,100.00
